Metar Cercanos

 

LEPA - Palma De Mallorc, Spain
Distance from station: ONO 38km
Actualización: Fri, 14-May-2021 9:00am CEST
Parcialmente nuboso
Parcialmente nuboso
 Viento del NNO
Viento: NNO 15 km/h
Temperatura: 19°C
Rocío: 12°C
Humedad: 64%
Barómetro: 1011 hPa
Clouds: Parcialmente nuboso
Visibility: 10 km
Cloud details: Few Clouds 457 m
Parcialmente nuboso 1158 m
2021/05/14 07:00 LEPA 140700Z 34008KT 300V020 9999 FEW015 SCT038 19/12 Q1011 NOSIG
LEMH - Mahon/Menorca Is, Spain
Distance from station: ENE 105km
Actualización: Fri, 14-May-2021 9:00am CEST
Muy nuboso
Muy nuboso
 Viento del N
Viento: N 24 km/h
Temperatura: 17°C
Rocío: 14°C
Humedad: 83%
Barómetro: 1010 hPa
Clouds: Muy nuboso
Visibility: 10 km
Cloud details: Few Clouds 335 m
Muy nuboso 1219 m
2021/05/14 07:00 LEMH 140700Z 01013KT 9999 FEW011 BKN040 17/14 Q1010
 
LEIB - Ibiza/Es Codola, Spain
Distance from station: OSO 165km
Actualización: Fri, 14-May-2021 9:00am CEST
Muy nuboso
Muy nuboso
 Viento del N
Viento: N 15 km/h
Temperatura: 19°C
Rocío: 11°C
Humedad: 60%
Barómetro: 1013 hPa
Clouds: Muy nuboso
Visibility: 10 km
Cloud details: Muy nuboso 1494 m
2021/05/14 07:00 LEIB 140700Z 35008KT 320V030 9999 BKN049 19/11 Q1013 NOSIG
LEBL - Barcelona Airpor, Spain
Distance from station: NNO 225km
Actualización: Fri, 14-May-2021 9:00am CEST
Muy nuboso
Muy nuboso
 Viento del NNO
Viento: NNO 6 km/h
Temperatura: 16°C
Rocío: 12°C
Humedad: 77%
Barómetro: 1012 hPa
Clouds: Muy nuboso
Visibility: 10 km
Cloud details: Parcialmente nuboso 914 m
Muy nuboso 1524 m
2021/05/14 07:00 LEBL 140700Z 34003KT 9999 SCT030 BKN050 16/12 Q1012 NOSIG
 
LEVC - Valencia (civ/Mi, Spain
Distance from station: NO 188km
Actualización: Fri, 14-May-2021 9:00am CEST
Few Clouds
Few Clouds
 Viento del varies
Viento: varies 4 km/h
Temperatura: 20°C
Rocío: 9°C
Humedad: 49%
Barómetro: 1014 hPa
Clouds: Few Clouds
Visibility: 10 km
Cloud details: Few Clouds 914 m
2021/05/14 07:00 LEVC 140700Z VRB02KT 9999 FEW030 20/09 Q1014 NOSIG
LEGE - Gerona/Costa Bra, Spain
Distance from station: N 276km
Actualización: Fri, 14-May-2021 9:00am CEST
Cubierto
Cubierto
 Viento del varies
Viento: varies 4 km/h
Temperatura: 13°C
Rocío: 8°C
Humedad: 72%
Barómetro: 1011 hPa
Clouds: Cubierto
Visibility: 10 km
Cloud details: Few Clouds 152 m
Cubierto 1829 m
2021/05/14 07:00 LEGE 140700Z VRB02KT 9999 FEW005 OVC060 13/08 Q1011
 
LEAL - Alicante/El Alte, Spain
Distance from station: OSO 344km
Actualización: Fri, 14-May-2021 9:00am CEST
Few Clouds
Few Clouds
 Viento del NO
Viento: NO 24 km/h, Racha: 43 km/h
Temperatura: 21°C
Rocío: 9°C
Humedad: 46%
Barómetro: 1014 hPa
Clouds: Few Clouds
Visibility: 10 km
Cloud details: Few Clouds 1219 m
2021/05/14 07:00 LEAL 140700Z 31013G23KT 260V010 9999 FEW040 21/09 Q1014 NOSIG
LEAM - Almeria Airport, Spain
Distance from station: SSO 56km
Actualización: Fri, 14-May-2021 9:00am CEST
Despejado
Despejado
 Viento del ESE
Viento: ESE 6 km/h
Temperatura: 20°C
Rocío: 15°C
Humedad: 73%
Barómetro: 1013 hPa
Resumen: Despejado
Visibility: greater than 10 km
2021/05/14 07:00 LEAM 140700Z 11003KT 080V170 CAVOK 20/15 Q1013
 
LEZG - Zaragoza (mil/Ci, Spain
Distance from station: NO 431km
Actualización: Fri, 14-May-2021 9:00am CEST
Few Clouds
Few Clouds
 Viento del ONO
Viento: ONO 26 km/h
Temperatura: 12°C
Rocío: 6°C
Humedad: 67%
Barómetro: 1017 hPa
Clouds: Few Clouds
Visibility: 10 km
Cloud details: Few Clouds 2134 m
2021/05/14 07:00 LEZG 140700Z 30014KT 280V340 9999 FEW070 12/06 Q1017
LEMD - Madrid/Barajas, Spain
Distance from station: ONO 234km
Actualización: Fri, 14-May-2021 9:00am CEST
Parcialmente nuboso
Parcialmente nuboso
 Viento del O
Viento: O 11 km/h
Temperatura: 14°C
Rocío: 6°C
Humedad: 59%
Barómetro: 1017 hPa
Clouds: Parcialmente nuboso
Visibility: 10 km
Cloud details: Parcialmente nuboso 1494 m
2021/05/14 07:00 LEMD 140700Z 28006KT 220V340 9999 SCT049 14/06 Q1017 NOSIG
 
LEGR - Granada Airport, Spain
Distance from station: OSO 62km
Actualización: Fri, 14-May-2021 9:00am CEST
Few Clouds
Few Clouds
 Viento del varies
Viento: varies 4 km/h
Temperatura: 15°C
Rocío: 11°C
Humedad: 77%
Barómetro: 1018 hPa
Clouds: Few Clouds
Visibility: 10 km
Cloud details: Few Clouds 610 m
2021/05/14 07:00 LEGR 140700Z VRB02KT 9999 FEW020 15/11 Q1018
LEMG - Malaga (civ/Mil), Spain
Distance from station: OSO 227km
Actualización: Fri, 14-May-2021 9:00am CEST
Few Clouds
Few Clouds
 Viento del ONO
Viento: ONO 31 km/h
Temperatura: 19°C
Rocío: 12°C
Humedad: 64%
Barómetro: 1016 hPa
Clouds: Few Clouds
Visibility: 10 km
Cloud details: Few Clouds 1067 m
2021/05/14 07:00 LEMG 140700Z 29017KT 9999 FEW035 19/12 Q1016 NOSIG
 
LEZL - Sevilla (civ/Mil, Spain
Distance from station: S 318km
Actualización: Fri, 14-May-2021 9:00am CEST
Despejado
Despejado
 Viento del N
Viento: N 6 km/h
Temperatura: 16°C
Rocío: 10°C
Humedad: 68%
Barómetro: 1019 hPa
Resumen: Despejado
Visibility: greater than 10 km
2021/05/14 07:00 LEZL 140700Z 35003KT CAVOK 16/10 Q1019 NOSIG
LEVT - Vitoria, Spain
Distance from station: NO 226km
Actualización: Fri, 14-May-2021 9:00am CEST
Few Clouds
Few Clouds
 Viento del SE
Viento: SE 6 km/h
Temperatura: 8°C
Rocío: 5°C
Humedad: 82%
Barómetro: 1018 hPa
Clouds: Few Clouds
Visibility: 10 km
Cloud details: Few Clouds 853 m
2021/05/14 07:00 LEVT 140700Z 14003KT 110V170 9999 FEW028 08/05 Q1018
 
LEBB - Bilbao/Sondica, Spain
Distance from station: NNO 235km
Actualización: Fri, 14-May-2021 9:00am CEST
Muy nuboso
Muy nuboso
 Viento del varies
Viento: varies 2 km/h
Temperatura: 12°C
Rocío: 9°C
Humedad: 82%
Barómetro: 1019 hPa
Clouds: Muy nuboso
Visibility: 10 km
Cloud details: Parcialmente nuboso 975 m
Muy nuboso 1676 m
2021/05/14 07:00 LEBB 140700Z VRB01KT 9999 SCT032 BKN055 12/09 Q1019 TEMPO 3000 RA
LESO - San Sebastian/Fu, Spain
Distance from station: N 231km
Actualización: Fri, 14-May-2021 9:00am CEST
Lluvia débil, Muy nuboso
Lluvia débil, Muy nuboso
 Viento del SO
Viento: SO 17 km/h
Temperatura: 12°C
Rocío: 10°C
Humedad: 88%
Barómetro: 1018 hPa
Resumen: Lluvia débil
Clouds: Muy nuboso
Visibility: 10 km
Cloud details: Parcialmente nuboso 518 m
Muy nuboso 914 m
2021/05/14 07:00 LESO 140700Z 23009KT 180V270 9999 -RA SCT017 BKN030 12/10 Q1018
 
LEVD - Valladolid(Mil/C, Spain
Distance from station: ONO 239km
Actualización: Fri, 14-May-2021 9:00am CEST
Few Clouds
Few Clouds
 Viento del varies
Viento: varies 4 km/h
Temperatura: 7°C
Rocío: 6°C
Humedad: 93%
Barómetro: 1018 hPa
Clouds: Few Clouds
Visibility: 10 km
Cloud details: Few Clouds 183 m
2021/05/14 07:00 LEVD 140700Z VRB02KT 9999 FEW006 07/06 Q1018
LESA - Salamanca (civ/M, Spain
Distance from station: ONO 349km
Actualización: Fri, 14-May-2021 9:00am CEST
Muy nuboso
Muy nuboso
 Viento del ONO
Viento: ONO 13 km/h
Temperatura: 8°C
Sensación frio: 6°C
Rocío: 7°C
Humedad: 93%
Barómetro: 1019 hPa
Clouds: Muy nuboso
Visibility: 10 km
Cloud details: Parcialmente nuboso 305 m
Muy nuboso 457 m
2021/05/14 07:00 LESA 140700Z 29007KT 260V320 9999 SCT010 BKN015 08/07 Q1019
 
LEXJ - Santander/Paraya, Spain
Distance from station: NNO 247km
Actualización: Fri, 14-May-2021 9:00am CEST
Muy nuboso
Muy nuboso
 Viento del OSO
Viento: OSO 17 km/h
Temperatura: 12°C
Rocío: 7°C
Humedad: 72%
Barómetro: 1019 hPa
Clouds: Muy nuboso
Visibility: 10 km
Cloud details: Few Clouds 853 m
Muy nuboso 1676 m
2021/05/14 07:00 LEXJ 140700Z 25009KT 9999 FEW028 BKN055 12/07 Q1019
LEAS - Asturias/Aviles, Spain
Distance from station: NO 214km
Actualización: Fri, 14-May-2021 9:00am CEST
Parcialmente nuboso
Parcialmente nuboso
 Viento del SO
Viento: SO 20 km/h
Temperatura: 10°C
Sensación frio: 7°C
Rocío: 5°C
Humedad: 71%
Barómetro: 1019 hPa
Clouds: Parcialmente nuboso
Visibility: 10 km
Cloud details: Few Clouds 914 m
Parcialmente nuboso 1676 m
2021/05/14 07:00 LEAS 140700Z 23011KT 9999 FEW030 SCT055 10/05 Q1019 NOSIG
 
LECO - La Coruna/Alvedr, Spain
Distance from station: ONO 222km
Actualización: Fri, 14-May-2021 9:00am CEST
Few Clouds
Few Clouds
 Viento del SSE
Viento: SSE 9 km/h
Temperatura: 8°C
Sensación frio: 6°C
Rocío: 8°C
Humedad: 100%
Barómetro: 1020 hPa
Clouds: Few Clouds
Visibility: 10 km
Cloud details: Few Clouds 457 m
2021/05/14 07:00 LECO 140700Z 15005KT 9999 FEW015 08/08 Q1020 NOSIG
LEVX - Vigo/Peinador, Spain
Distance from station: O 214km
Actualización: Fri, 14-May-2021 9:00am CEST
Parcialmente nuboso
Parcialmente nuboso
 Viento del SSO
Viento: SSO 9 km/h
Temperatura: 9°C
Sensación frio: 7°C
Rocío: 8°C
Humedad: 94%
Barómetro: 1020 hPa
Clouds: Parcialmente nuboso
Visibility: 10 km
Cloud details: Parcialmente nuboso 884 m
2021/05/14 07:00 LEVX 140700Z 21005KT 160V240 9999 SCT029 09/08 Q1020 TEMPO 0800 BCFG